createdAt,value
2019-05-05T00:01:31.658Z,89.90
2019-05-05T00:06:27.878Z,90.04
2019-05-05T00:11:41.055Z,90.26
2019-05-05T00:16:41.656Z,90.98
2019-05-05T00:21:37.683Z,91.40
2019-05-05T00:26:36.811Z,91.76
2019-05-05T00:31:34.743Z,92.06
2019-05-05T00:36:30.854Z,92.13
2019-05-05T00:41:26.819Z,91.90
2019-05-05T00:46:30.578Z,90.71
2019-05-05T00:51:26.611Z,91.44
2019-05-05T00:56:25.074Z,91.24
2019-05-05T01:01:44.720Z,90.93
2019-05-05T01:06:40.688Z,91.10
2019-05-05T01:11:36.713Z,91.57
2019-05-05T01:16:32.738Z,91.90
2019-05-05T01:21:28.761Z,91.83
2019-05-05T01:26:26.924Z,91.56
2019-05-05T01:31:25.221Z,91.38
2019-05-05T01:36:21.370Z,91.83
2019-05-05T01:41:19.410Z,92.09
2019-05-05T01:46:15.343Z,92.30
2019-05-05T01:51:11.271Z,90.10
2019-05-05T01:56:20.007Z,89.72
2019-05-05T02:01:15.935Z,90.62
2019-05-05T02:06:14.123Z,91.27
2019-05-05T02:11:09.893Z,91.84
2019-05-05T02:16:05.820Z,92.25
2019-05-05T02:21:05.152Z,92.12
2019-05-05T02:26:04.586Z,91.63
2019-05-05T02:31:16.628Z,92.08
2019-05-05T02:36:15.732Z,92.46
2019-05-05T02:41:11.276Z,92.64
2019-05-05T02:46:14.450Z,92.73
2019-05-05T02:51:14.803Z,92.42
2019-05-05T03:01:37.069Z,92.37
2019-05-05T03:06:34.322Z,92.63
2019-05-05T03:11:31.887Z,92.75
2019-05-05T03:16:31.649Z,92.81
2019-05-05T03:21:27.688Z,92.70
2019-05-05T03:26:25.685Z,92.79
2019-05-05T03:31:22.078Z,91.79
2019-05-05T03:36:18.104Z,91.98
2019-05-05T03:41:25.085Z,92.04
2019-05-05T03:46:21.110Z,91.37
2019-05-05T03:51:20.970Z,90.96
2019-05-05T03:56:24.159Z,91.67
2019-05-05T04:01:56.317Z,91.35
2019-05-05T04:06:57.419Z,91.78
2019-05-05T04:11:54.078Z,92.20
2019-05-05T04:16:55.016Z,92.41
2019-05-05T04:21:50.942Z,92.63
2019-05-05T04:26:47.552Z,92.68
2019-05-05T04:31:43.604Z,92.72
2019-05-05T04:36:39.653Z,92.85
2019-05-05T04:41:35.593Z,92.84
2019-05-05T04:46:33.715Z,92.78
2019-05-05T04:51:49.888Z,92.75
2019-05-05T04:56:44.805Z,91.99
2019-05-05T05:01:41.038Z,91.89
2019-05-05T05:06:38.876Z,91.04
2019-05-05T05:11:34.808Z,90.12
2019-05-05T05:16:30.843Z,90.02
2019-05-05T05:21:26.761Z,89.75
2019-05-05T05:26:29.168Z,88.16
2019-05-05T05:31:25.210Z,86.56
2019-05-05T05:36:21.133Z,84.98
2019-05-05T05:41:19.031Z,80.03
2019-05-05T05:46:28.826Z,78.23
2019-05-05T05:51:24.748Z,79.32
2019-05-05T05:56:24.951Z,81.43
2019-05-05T06:01:23.937Z,81.83
2019-05-05T06:06:19.916Z,81.75
2019-05-05T06:11:15.842Z,79.99
2019-05-05T06:16:11.770Z,78.59
2019-05-05T06:21:07.833Z,77.73
2019-05-05T06:26:06.842Z,79.00
2019-05-05T06:31:01.694Z,80.63
2019-05-05T06:35:57.620Z,81.51
2019-05-05T06:40:58.637Z,81.73
2019-05-05T06:45:59.233Z,81.82
2019-05-05T06:50:55.158Z,81.93
2019-05-05T06:55:52.436Z,80.57
2019-05-05T07:00:49.005Z,79.48
2019-05-05T07:05:44.939Z,79.03
2019-05-05T07:10:40.861Z,79.28
2019-05-05T07:15:36.812Z,76.23
2019-05-05T07:20:34.646Z,76.39
2019-05-05T07:25:42.172Z,74.39
2019-05-05T07:30:28.407Z,77.37
2019-05-05T07:35:26.287Z,77.89
2019-05-05T07:40:24.101Z,77.89
2019-05-05T07:45:25.154Z,77.41
2019-05-05T07:50:28.521Z,75.69
2019-05-05T07:55:15.888Z,76.22
2019-05-05T08:00:12.216Z,75.21
2019-05-05T08:05:20.189Z,74.69
2019-05-05T08:10:16.979Z,74.76
2019-05-05T08:15:15.620Z,75.96
2019-05-05T08:20:19.349Z,75.73
2019-05-05T08:25:16.836Z,75.65
2019-05-05T08:30:15.072Z,78.35
2019-05-05T08:35:11.245Z,78.81
2019-05-05T08:40:07.420Z,78.91
2019-05-05T08:45:04.668Z,78.11
2019-05-05T08:50:00.874Z,78.13
2019-05-05T08:54:56.895Z,75.87
2019-05-05T08:59:54.511Z,76.96
2019-05-05T09:04:50.644Z,77.39
2019-05-05T09:09:46.577Z,76.61
2019-05-05T09:14:44.756Z,78.13
2019-05-05T09:19:40.345Z,75.79
2019-05-05T09:24:41.192Z,76.42
2019-05-05T09:29:39.016Z,73.36
2019-05-05T09:34:34.937Z,71.51
2019-05-05T09:39:31.776Z,71.65
2019-05-05T09:44:27.805Z,68.08
2019-05-05T09:49:24.611Z,71.65
2019-05-05T09:54:20.866Z,67.08
2019-05-05T09:59:16.898Z,69.39
2019-05-05T10:04:13.957Z,69.06
2019-05-05T10:09:10.463Z,69.95
2019-05-05T10:14:06.705Z,69.70
2019-05-05T10:19:04.520Z,68.75
2019-05-05T10:24:04.474Z,70.23
2019-05-05T10:29:01.285Z,70.49
2019-05-05T10:33:59.345Z,69.53
2019-05-05T10:38:57.176Z,75.17
2019-05-05T10:43:54.212Z,75.58
2019-05-05T10:48:50.342Z,73.60
2019-05-05T10:53:46.277Z,70.83
2019-05-05T10:58:44.130Z,70.76
2019-05-05T11:03:40.420Z,67.10
2019-05-05T11:08:36.448Z,66.87
2019-05-05T11:13:34.344Z,70.11
2019-05-05T11:18:30.410Z,69.11
2019-05-05T11:23:26.437Z,66.35
2019-05-05T11:28:22.473Z,68.63
2019-05-05T11:33:34.282Z,70.84
2019-05-05T11:38:30.158Z,68.86
2019-05-05T11:43:26.099Z,73.78
2019-05-05T11:48:24.170Z,73.93
2019-05-05T11:53:22.292Z,73.93
2019-05-05T11:58:18.359Z,72.56
2019-05-05T12:03:23.493Z,71.35
2019-05-05T12:08:19.420Z,68.88
2019-05-05T12:13:15.388Z,65.15
2019-05-05T12:18:11.446Z,64.86
2019-05-05T12:23:08.225Z,67.85
2019-05-05T12:28:06.485Z,66.90
2019-05-05T12:33:04.769Z,74.46
2019-05-05T12:38:00.996Z,72.90
2019-05-05T12:42:56.926Z,71.44
2019-05-05T12:48:18.365Z,69.49
2019-05-05T12:53:15.112Z,69.76
2019-05-05T12:58:18.914Z,70.41
2019-05-05T13:03:23.983Z,70.09
2019-05-05T13:08:29.105Z,70.54
2019-05-05T13:13:27.335Z,69.97
2019-05-05T13:18:25.236Z,68.15
2019-05-05T13:23:23.835Z,66.51
2019-05-05T13:28:20.493Z,68.39
2019-05-05T13:33:16.567Z,66.76
2019-05-05T13:38:14.466Z,62.92
2019-05-05T13:43:10.464Z,59.68
2019-05-05T13:48:06.767Z,60.74
2019-05-05T13:53:05.663Z,60.56
2019-05-05T13:58:04.477Z,59.86
2019-05-05T14:03:00.512Z,61.05
2019-05-05T14:07:56.545Z,51.97
2019-05-05T14:12:55.178Z,53.30
2019-05-05T14:17:51.212Z,54.97
2019-05-05T14:22:47.349Z,54.24
2019-05-05T14:27:43.631Z,56.91
2019-05-05T14:32:41.532Z,55.78
2019-05-05T14:37:39.505Z,57.61
2019-05-05T14:42:35.463Z,58.12
2019-05-05T14:47:33.460Z,61.04
2019-05-05T14:52:29.318Z,61.36
2019-05-05T14:57:28.100Z,60.99
2019-05-05T15:02:24.595Z,59.73
2019-05-05T15:07:25.446Z,61.04
2019-05-05T15:12:23.792Z,59.71
2019-05-05T15:17:19.907Z,58.13
2019-05-05T15:22:15.835Z,57.92
2019-05-05T15:27:11.856Z,55.09
2019-05-05T15:32:07.786Z,54.44
2019-05-05T15:37:03.992Z,54.22
2019-05-05T15:42:00.062Z,56.02
2019-05-05T15:46:58.011Z,50.52
2019-05-05T15:51:54.060Z,55.57
2019-05-05T15:57:02.964Z,56.39
2019-05-05T16:01:48.481Z,57.27
2019-05-05T16:06:44.589Z,59.40
2019-05-05T16:11:40.598Z,57.08
2019-05-05T16:16:56.483Z,56.79
2019-05-05T16:21:54.489Z,57.19
2019-05-05T16:26:51.053Z,57.47
2019-05-05T16:31:46.956Z,56.54
2019-05-05T16:36:44.007Z,56.70
2019-05-05T16:41:40.328Z,55.15
2019-05-05T16:46:36.265Z,54.42
2019-05-05T16:51:35.001Z,54.94
2019-05-05T16:56:38.884Z,54.94
2019-05-05T17:01:35.741Z,56.26
2019-05-05T17:06:31.874Z,53.54
2019-05-05T17:11:27.903Z,53.30
2019-05-05T17:16:28.265Z,49.89
2019-05-05T17:26:43.771Z,50.75
2019-05-05T17:31:39.764Z,50.34
2019-05-05T17:36:35.761Z,47.69
2019-05-05T17:41:49.029Z,46.21
2019-05-05T17:47:04.481Z,47.06
2019-05-05T17:52:03.688Z,48.06
2019-05-05T17:57:00.422Z,49.40
2019-05-05T18:01:56.404Z,50.82
2019-05-05T18:06:54.247Z,52.55
2019-05-05T18:11:53.605Z,52.01
2019-05-05T18:16:49.603Z,50.92
2019-05-05T18:21:45.752Z,52.35
2019-05-05T18:26:43.573Z,52.97
2019-05-05T18:31:39.689Z,54.64
2019-05-05T18:36:35.608Z,56.87
2019-05-05T18:41:39.249Z,58.03
2019-05-05T18:46:35.168Z,57.93
2019-05-05T18:51:31.062Z,59.01
2019-05-05T18:56:27.898Z,60.74
2019-05-05T19:01:34.626Z,59.27
2019-05-05T19:06:49.524Z,59.98
2019-05-05T19:11:45.483Z,59.52
2019-05-05T19:16:41.407Z,60.26
2019-05-05T19:21:39.195Z,60.70
2019-05-05T19:26:37.140Z,60.73
2019-05-05T19:31:36.556Z,61.40
2019-05-05T19:36:34.301Z,62.21
2019-05-05T19:41:30.349Z,64.22
2019-05-05T19:46:28.174Z,64.17
2019-05-05T19:51:24.111Z,64.88
2019-05-05T19:56:23.521Z,65.99
2019-05-05T20:01:34.209Z,67.60
2019-05-05T20:06:19.330Z,69.23
2019-05-05T20:11:15.248Z,70.87
2019-05-05T20:16:18.926Z,71.90
2019-05-05T20:21:14.940Z,72.57
2019-05-05T20:26:28.864Z,72.19
2019-05-05T20:31:24.973Z,72.67
2019-05-05T20:36:23.777Z,74.24
2019-05-05T20:41:21.017Z,75.71
2019-05-05T20:46:17.337Z,76.56
2019-05-05T20:51:13.891Z,77.54
2019-05-05T20:56:15.299Z,78.91
2019-05-05T21:01:13.847Z,77.78
2019-05-05T21:06:09.320Z,78.55
2019-05-05T21:11:05.352Z,79.72
2019-05-05T21:16:01.275Z,80.95
2019-05-05T21:20:59.196Z,81.81
2019-05-05T21:25:57.557Z,82.38
2019-05-05T21:30:54.091Z,82.72
2019-05-05T21:35:50.115Z,83.14
2019-05-05T21:40:46.111Z,83.55
2019-05-05T21:45:44.328Z,83.95
2019-05-05T21:50:42.011Z,84.25
2019-05-05T21:55:43.921Z,84.38
2019-05-05T22:05:53.965Z,84.74
2019-05-05T22:10:51.576Z,84.95
2019-05-05T22:15:47.577Z,84.96
2019-05-05T22:20:48.594Z,84.90
2019-05-05T22:25:44.617Z,85.26
2019-05-05T22:30:40.543Z,85.45
2019-05-05T22:35:36.598Z,85.43
2019-05-05T22:40:34.639Z,85.59
2019-05-05T22:45:30.563Z,83.03
2019-05-05T22:50:26.589Z,83.94
2019-05-05T22:55:24.583Z,83.91
2019-05-05T23:00:28.336Z,85.03
2019-05-05T23:05:24.622Z,86.17
2019-05-05T23:10:20.662Z,86.75
2019-05-05T23:15:16.791Z,87.39
2019-05-05T23:20:41.125Z,87.65
2019-05-05T23:25:45.596Z,87.38
2019-05-05T23:30:41.948Z,87.68
2019-05-05T23:35:37.676Z,87.93
2019-05-05T23:40:33.958Z,88.33
2019-05-05T23:45:30.137Z,88.64
2019-05-05T23:50:26.158Z,89.01
2019-05-05T23:55:24.013Z,89.24
